Time;durP1;ratioP1;P1;durP2;ratioP2;P2;SDS_P1;SDS_P2;PMS_P1;PMS_P2;Temp;Humidity;BMP_temperature;BMP_pressure;BME280_temperature;BME280_humidity;BME280_pressure;Samples;Min_cycle;Max_cycle;Signal;HPM_P1;HPM_P2
2022/01/02 00:01:12;;;;;;;15.23;5.50;;;;;;;;;;4917838;29;20020;-81
2022/01/02 00:03:40;;;;;;;9.52;4.55;;;;;;;;;;4928154;29;20034;-80
2022/01/02 00:06:07;;;;;;;11.68;4.63;;;;;;;;;;4912720;29;20472;-80
2022/01/02 00:08:38;;;;;;;8.90;3.97;;;;;;;;;;4941582;28;20035;-80
2022/01/02 00:11:05;;;;;;;14.88;4.57;;;;;;;;;;4919723;28;20031;-80
2022/01/02 00:13:35;;;;;;;8.98;4.45;;;;;;;;;;4929301;28;20204;-81
2022/01/02 00:16:08;;;;;;;22.25;6.00;;;;;;;;;;4927043;28;20506;-81
2022/01/02 00:18:37;;;;;;;10.32;4.30;;;;;;;;;;4913379;29;20091;-80
2022/01/02 00:21:07;;;;;;;9.07;3.65;;;;;;;;;;4921294;28;20519;-81
2022/01/02 00:23:48;;;;;;;11.93;5.53;;;;;;;;;;4910199;29;20043;-81
2022/01/02 00:26:17;;;;;;;9.93;4.97;;;;;;;;;;4924434;29;20676;-81
2022/01/02 00:28:46;;;;;;;15.23;5.80;;;;;;;;;;4917062;29;20028;-80
2022/01/02 00:31:12;;;;;;;16.38;6.13;;;;;;;;;;4931168;28;20499;-82
2022/01/02 00:33:40;;;;;;;16.08;6.10;;;;;;;;;;4916747;29;20039;-81
2022/01/02 00:36:06;;;;;;;8.88;5.13;;;;;;;;;;4920777;28;20034;-81
2022/01/02 00:38:32;;;;;;;20.33;5.80;;;;;;;;;;4933530;28;20035;-81
2022/01/02 00:40:58;;;;;;;12.30;6.18;;;;;;;;;;4915935;28;20126;-81
2022/01/02 00:43:31;;;;;;;15.95;5.65;;;;;;;;;;4930042;28;20039;-81
2022/01/02 00:46:00;;;;;;;7.75;3.22;;;;;;;;;;4910813;29;20584;-81
2022/01/02 00:48:28;;;;;;;13.65;4.53;;;;;;;;;;4916991;28;20574;-81
2022/01/02 00:51:04;;;;;;;15.13;5.78;;;;;;;;;;4926426;28;20606;-81
2022/01/02 00:53:35;;;;;;;24.13;6.05;;;;;;;;;;4930356;28;20074;-81
2022/01/02 00:56:02;;;;;;;9.48;4.28;;;;;;;;;;4914226;29;20112;-81
2022/01/02 00:58:36;;;;;;;17.08;5.47;;;;;;;;;;4916963;28;20417;-81
2022/01/02 01:01:05;;;;;;;19.15;7.00;;;;;;;;;;4926423;29;20039;-81
2022/01/02 01:03:32;;;;;;;18.23;4.18;;;;;;;;;;4921697;29;20562;-81
2022/01/02 01:06:02;;;;;;;16.13;5.47;;;;;;;;;;4926705;28;20071;-81
2022/01/02 01:08:30;;;;;;;13.55;4.53;;;;;;;;;;4926421;29;20138;-81
2022/01/02 01:10:56;;;;;;;18.42;6.28;;;;;;;;;;4927476;29;20395;-81
2022/01/02 01:13:23;;;;;;;13.88;4.90;;;;;;;;;;4920103;29;20158;-81
2022/01/02 01:15:50;;;;;;;22.98;5.95;;;;;;;;;;4924511;28;20051;-81
2022/01/02 01:18:17;;;;;;;17.05;6.07;;;;;;;;;;4925999;28;20034;-81
2022/01/02 01:20:44;;;;;;;17.30;6.38;;;;;;;;;;4917583;28;20484;-81
2022/01/02 01:23:15;;;;;;;16.27;6.47;;;;;;;;;;4927144;29;20464;-81
2022/01/02 01:25:45;;;;;;;17.30;5.80;;;;;;;;;;4920627;28;20401;-82
2022/01/02 01:28:11;;;;;;;14.57;5.20;;;;;;;;;;4920597;29;20031;-81
2022/01/02 01:30:38;;;;;;;9.13;3.50;;;;;;;;;;4921325;29;20035;-81
2022/01/02 01:33:04;;;;;;;18.80;6.07;;;;;;;;;;4924332;29;20043;-81
2022/01/02 01:35:30;;;;;;;11.73;3.33;;;;;;;;;;4923294;29;20400;-81
2022/01/02 01:37:56;;;;;;;9.95;4.05;;;;;;;;;;4920422;28;20118;-81
2022/01/02 01:40:22;;;;;;;15.40;7.10;;;;;;;;;;4939064;28;20106;-80
2022/01/02 01:42:58;;;;;;;16.73;5.60;;;;;;;;;;4914650;29;20035;-81
2022/01/02 01:47:56;;;;;;;7.40;2.72;;;;;;;;;;4933516;28;20035;-81
2022/01/02 01:50:42;;;;;;;19.08;5.90;;;;;;;;;;4926520;29;20095;-80
2022/01/02 01:53:08;;;;;;;19.23;6.85;;;;;;;;;;4923401;28;20483;-81
2022/01/02 01:55:35;;;;;;;17.83;6.90;;;;;;;;;;4920065;28;20688;-81
2022/01/02 01:58:02;;;;;;;9.68;4.43;;;;;;;;;;4934944;28;20457;-81
2022/01/02 02:00:28;;;;;;;19.67;6.90;;;;;;;;;;4929859;28;20480;-81
2022/01/02 02:02:56;;;;;;;19.92;5.68;;;;;;;;;;4924546;28;20646;-81
2022/01/02 02:05:22;;;;;;;21.25;6.75;;;;;;;;;;4933585;28;20255;-81
2022/01/02 02:07:48;;;;;;;15.88;5.57;;;;;;;;;;4929300;28;20041;-81
2022/01/02 02:10:27;;;;;;;18.67;6.75;;;;;;;;;;4932236;28;20122;-82
2022/01/02 02:12:54;;;;;;;9.25;3.95;;;;;;;;;;4922019;29;20047;-81
2022/01/02 02:15:20;;;;;;;15.27;6.70;;;;;;;;;;4925244;28;20440;-80
2022/01/02 02:17:47;;;;;;;18.63;7.45;;;;;;;;;;4922705;28;20027;-81
2022/01/02 02:20:14;;;;;;;20.35;8.50;;;;;;;;;;4918319;29;20530;-81
2022/01/02 02:22:42;;;;;;;16.98;8.80;;;;;;;;;;4916531;28;20031;-81
2022/01/02 02:25:10;;;;;;;17.27;7.70;;;;;;;;;;4920113;29;20062;-80
2022/01/02 02:27:36;;;;;;;17.85;6.53;;;;;;;;;;4919474;28;20407;-80
2022/01/02 02:30:03;;;;;;;22.85;7.53;;;;;;;;;;4914885;29;20487;-80
2022/01/02 02:32:30;;;;;;;24.17;7.65;;;;;;;;;;4918487;28;20043;-80
2022/01/02 02:34:56;;;;;;;20.00;8.20;;;;;;;;;;4922740;29;20035;-80
2022/01/02 02:37:22;;;;;;;19.00;5.68;;;;;;;;;;4917367;29;20081;-80
2022/01/02 02:39:48;;;;;;;16.35;5.80;;;;;;;;;;4938533;28;20031;-80
2022/01/02 02:42:41;;;;;;;27.40;9.20;;;;;;;;;;4921520;28;20113;-80
2022/01/02 02:48:58;;;;;;;19.67;9.15;;;;;;;;;;4918779;29;20059;-80
2022/01/02 02:50:44;;;;;;;20.02;9.75;;;;;;;;;;4936370;28;20066;-80
2022/01/02 02:53:10;;;;;;;25.23;8.18;;;;;;;;;;4924630;29;20053;-80
2022/01/02 02:55:43;;;;;;;26.45;9.07;;;;;;;;;;4925239;29;20058;-80
2022/01/02 02:58:38;;;;;;;32.15;11.02;;;;;;;;;;4920808;29;20107;-80
2022/01/02 03:00:55;;;;;;;17.85;7.07;;;;;;;;;;4937786;28;20535;-80
2022/01/02 03:03:21;;;;;;;21.88;7.63;;;;;;;;;;4935962;28;20090;-79
2022/01/02 03:05:47;;;;;;;25.40;9.52;;;;;;;;;;4938410;28;20109;-80
2022/01/02 03:08:13;;;;;;;36.47;8.57;;;;;;;;;;4924716;28;20135;-80
2022/01/02 03:10:40;;;;;;;27.70;9.52;;;;;;;;;;4935264;28;20888;-80
2022/01/02 03:13:06;;;;;;;25.83;8.93;;;;;;;;;;4918400;29;20058;-80
2022/01/02 03:15:32;;;;;;;25.30;9.77;;;;;;;;;;4925608;28;20042;-80
2022/01/02 03:17:58;;;;;;;19.35;8.68;;;;;;;;;;4941751;28;20420;-80
2022/01/02 03:20:24;;;;;;;25.10;9.27;;;;;;;;;;4932521;28;20035;-80
2022/01/02 03:22:50;;;;;;;20.52;9.88;;;;;;;;;;4951768;28;20101;-80
2022/01/02 03:25:17;;;;;;;32.60;9.98;;;;;;;;;;4933268;28;20027;-80
2022/01/02 03:27:44;;;;;;;20.75;9.40;;;;;;;;;;4954401;28;20054;-80
2022/01/02 03:30:11;;;;;;;29.92;9.60;;;;;;;;;;4931092;28;20042;-80
2022/01/02 03:32:37;;;;;;;20.65;7.20;;;;;;;;;;4940975;28;20043;-80
2022/01/02 03:35:03;;;;;;;29.45;10.57;;;;;;;;;;4933547;28;20345;-80
2022/01/02 03:37:32;;;;;;;24.95;9.60;;;;;;;;;;4941643;28;20685;-80
2022/01/02 03:39:58;;;;;;;24.48;9.77;;;;;;;;;;4926693;28;20047;-80
2022/01/02 03:42:25;;;;;;;32.70;9.43;;;;;;;;;;4948272;28;20031;-81
2022/01/02 03:44:51;;;;;;;26.13;10.50;;;;;;;;;;4938080;28;20038;-80
2022/01/02 03:47:18;;;;;;;36.13;10.18;;;;;;;;;;4937672;28;20293;-80
2022/01/02 03:49:44;;;;;;;29.52;9.32;;;;;;;;;;4957762;28;20487;-80
2022/01/02 03:52:10;;;;;;;22.20;6.68;;;;;;;;;;4934032;28;20116;-80
2022/01/02 03:54:36;;;;;;;26.50;10.02;;;;;;;;;;4946824;28;20122;-80
2022/01/02 03:57:03;;;;;;;22.40;8.90;;;;;;;;;;4954440;28;20110;-80
2022/01/02 03:59:29;;;;;;;31.02;11.88;;;;;;;;;;4938848;28;20501;-81
2022/01/02 04:01:56;;;;;;;40.45;10.65;;;;;;;;;;4940803;28;20118;-80
2022/01/02 04:04:22;;;;;;;28.05;10.50;;;;;;;;;;4949390;28;20118;-80
2022/01/02 04:06:48;;;;;;;38.90;10.40;;;;;;;;;;4942640;28;20031;-80
2022/01/02 04:09:14;;;;;;;21.65;8.18;;;;;;;;;;4950097;28;20048;-80
2022/01/02 04:11:40;;;;;;;22.55;8.68;;;;;;;;;;4942190;28;20038;-80
2022/01/02 04:14:06;;;;;;;35.50;8.73;;;;;;;;;;4938601;28;20051;-80
2022/01/02 04:16:39;;;;;;;31.13;10.77;;;;;;;;;;4933424;28;20381;-80
2022/01/02 04:19:05;;;;;;;35.65;11.05;;;;;;;;;;4912472;29;20106;-80
2022/01/02 04:21:31;;;;;;;36.13;9.55;;;;;;;;;;4925527;28;20032;-80
2022/01/02 04:23:57;;;;;;;13.18;4.28;;;;;;;;;;4919382;29;20148;-80
2022/01/02 04:26:23;;;;;;;34.78;10.32;;;;;;;;;;4921702;28;20121;-80
2022/01/02 04:28:49;;;;;;;36.35;10.32;;;;;;;;;;4935285;28;20411;-80
2022/01/02 04:31:15;;;;;;;38.85;9.45;;;;;;;;;;4919628;29;20035;-79
2022/01/02 04:33:41;;;;;;;26.95;9.02;;;;;;;;;;4923907;29;20042;-80
2022/01/02 04:36:07;;;;;;;28.65;8.30;;;;;;;;;;4923127;29;20039;-80
2022/01/02 04:38:36;;;;;;;34.65;9.32;;;;;;;;;;4930814;28;20033;-80
2022/01/02 04:41:02;;;;;;;23.73;7.25;;;;;;;;;;4922790;29;20073;-80
2022/01/02 04:43:28;;;;;;;27.42;9.52;;;;;;;;;;4940402;28;20031;-80
2022/01/02 04:45:56;;;;;;;25.55;8.93;;;;;;;;;;4920905;29;20436;-80
2022/01/02 04:48:22;;;;;;;23.55;8.40;;;;;;;;;;4940771;28;20087;-79
2022/01/02 04:50:48;;;;;;;23.63;7.65;;;;;;;;;;4924168;29;20059;-79
2022/01/02 04:53:14;;;;;;;25.17;8.38;;;;;;;;;;4919931;28;20039;-79
2022/01/02 04:55:41;;;;;;;32.67;8.48;;;;;;;;;;4927740;29;20038;-81
2022/01/02 04:58:07;;;;;;;26.67;9.32;;;;;;;;;;4938669;28;20027;-80
2022/01/02 05:00:33;;;;;;;31.15;8.50;;;;;;;;;;4926545;29;20469;-79
2022/01/02 05:02:59;;;;;;;27.98;9.27;;;;;;;;;;4934408;28;20028;-80
2022/01/02 05:05:25;;;;;;;19.80;7.57;;;;;;;;;;4922108;29;20106;-80
2022/01/02 05:07:51;;;;;;;21.17;8.45;;;;;;;;;;4923012;29;20079;-79
2022/01/02 05:10:17;;;;;;;26.73;7.68;;;;;;;;;;4942217;28;22233;-80
2022/01/02 05:12:43;;;;;;;20.27;5.63;;;;;;;;;;4920913;28;20031;-80
2022/01/02 05:15:10;;;;;;;27.35;7.97;;;;;;;;;;4925666;28;20042;-80
2022/01/02 05:17:36;;;;;;;33.63;10.52;;;;;;;;;;4921976;28;20130;-80
2022/01/02 05:20:02;;;;;;;29.77;8.13;;;;;;;;;;4918661;29;20110;-80
2022/01/02 05:22:28;;;;;;;32.63;9.23;;;;;;;;;;4939724;28;20030;-80
2022/01/02 05:24:54;;;;;;;24.10;6.70;;;;;;;;;;4932903;28;20476;-79
2022/01/02 05:27:20;;;;;;;13.57;4.03;;;;;;;;;;4924198;29;20052;-80
2022/01/02 05:29:46;;;;;;;26.88;9.60;;;;;;;;;;4918718;29;20098;-79
2022/01/02 05:32:12;;;;;;;30.42;7.03;;;;;;;;;;4916935;29;20028;-80
2022/01/02 05:34:38;;;;;;;34.63;7.80;;;;;;;;;;4921185;28;20050;-81
2022/01/02 05:37:04;;;;;;;30.60;6.47;;;;;;;;;;4916259;28;20380;-80
2022/01/02 05:39:30;;;;;;;29.58;7.57;;;;;;;;;;4924504;28;20032;-80
2022/01/02 05:41:56;;;;;;;41.38;9.07;;;;;;;;;;4920797;29;20031;-80
2022/01/02 05:44:22;;;;;;;37.42;8.57;;;;;;;;;;4920982;28;20042;-80
2022/01/02 05:46:49;;;;;;;34.38;8.57;;;;;;;;;;4942352;28;20081;-80
2022/01/02 05:49:15;;;;;;;23.63;6.07;;;;;;;;;;4922732;29;20086;-80
2022/01/02 05:51:42;;;;;;;35.35;8.95;;;;;;;;;;4924748;29;20083;-80
2022/01/02 05:54:08;;;;;;;26.60;7.43;;;;;;;;;;4922014;29;20036;-80
2022/01/02 05:56:34;;;;;;;24.65;6.55;;;;;;;;;;4934114;28;20039;-80
2022/01/02 05:59:00;;;;;;;32.10;8.18;;;;;;;;;;4924082;28;20032;-80
2022/01/02 06:01:27;;;;;;;28.63;7.55;;;;;;;;;;4919869;29;20090;-80
2022/01/02 06:03:53;;;;;;;29.83;7.72;;;;;;;;;;4935615;28;20677;-80
2022/01/02 06:06:19;;;;;;;12.73;3.88;;;;;;;;;;4942295;28;20545;-80
2022/01/02 06:08:45;;;;;;;19.08;4.30;;;;;;;;;;4918978;28;20075;-80
2022/01/02 06:11:11;;;;;;;38.90;5.75;;;;;;;;;;4922941;29;20062;-80
2022/01/02 06:13:40;;;;;;;32.13;6.65;;;;;;;;;;4918613;29;20039;-80
2022/01/02 06:16:06;;;;;;;32.42;7.05;;;;;;;;;;4930206;28;20035;-80
2022/01/02 06:18:39;;;;;;;35.97;4.88;;;;;;;;;;4937750;28;20031;-80
2022/01/02 06:21:05;;;;;;;31.42;6.57;;;;;;;;;;4946093;28;20035;-80
2022/01/02 06:23:31;;;;;;;17.45;5.57;;;;;;;;;;4953951;28;20057;-80
2022/01/02 06:25:57;;;;;;;22.45;4.88;;;;;;;;;;4942350;28;20034;-80
2022/01/02 06:28:23;;;;;;;32.17;7.95;;;;;;;;;;4942796;28;20130;-80
2022/01/02 06:30:49;;;;;;;20.63;6.03;;;;;;;;;;4938065;28;20034;-80
2022/01/02 06:33:15;;;;;;;25.27;7.30;;;;;;;;;;4955760;28;20518;-80
2022/01/02 06:35:41;;;;;;;26.17;5.85;;;;;;;;;;4936395;28;20061;-80
2022/01/02 06:38:12;;;;;;;5.47;2.90;;;;;;;;;;4952419;28;20023;-80
2022/01/02 06:40:38;;;;;;;20.48;3.47;;;;;;;;;;4940993;28;20030;-80
2022/01/02 06:43:04;;;;;;;21.08;5.10;;;;;;;;;;4941448;28;20035;-80
2022/01/02 06:45:30;;;;;;;20.40;6.40;;;;;;;;;;4956643;28;20050;-80
2022/01/02 06:47:56;;;;;;;17.10;4.28;;;;;;;;;;4956908;28;20040;-80
2022/01/02 06:50:22;;;;;;;19.05;4.82;;;;;;;;;;4957429;28;20035;-80
2022/01/02 06:52:48;;;;;;;21.52;5.13;;;;;;;;;;4939728;28;20038;-80
2022/01/02 06:55:15;;;;;;;11.90;5.18;;;;;;;;;;4942146;28;20033;-80
2022/01/02 06:57:41;;;;;;;16.55;4.40;;;;;;;;;;4936693;28;20094;-80
2022/01/02 07:00:07;;;;;;;17.15;3.95;;;;;;;;;;4941150;28;21704;-79
2022/01/02 07:02:33;;;;;;;8.82;3.38;;;;;;;;;;4928101;28;20126;-80
2022/01/02 07:05:00;;;;;;;9.90;3.20;;;;;;;;;;4958003;28;20514;-79
2022/01/02 07:07:26;;;;;;;19.38;5.28;;;;;;;;;;4939658;28;20083;-80
2022/01/02 07:09:52;;;;;;;28.45;5.35;;;;;;;;;;4943082;28;20062;-80
2022/01/02 07:12:18;;;;;;;13.98;4.55;;;;;;;;;;4937705;28;20027;-79
2022/01/02 07:14:44;;;;;;;22.38;5.85;;;;;;;;;;4949750;28;20082;-80
2022/01/02 07:17:10;;;;;;;21.38;3.20;;;;;;;;;;4930675;28;20036;-80
2022/01/02 07:19:36;;;;;;;19.90;4.82;;;;;;;;;;4915606;29;20066;-80
2022/01/02 07:22:02;;;;;;;16.77;3.25;;;;;;;;;;4923238;29;20035;-80
2022/01/02 07:24:28;;;;;;;14.18;3.75;;;;;;;;;;4924788;28;20101;-80
2022/01/02 07:26:54;;;;;;;10.15;2.92;;;;;;;;;;4923994;28;20047;-80
2022/01/02 07:29:20;;;;;;;20.35;4.18;;;;;;;;;;4919221;29;20531;-80
2022/01/02 07:31:46;;;;;;;11.57;2.17;;;;;;;;;;4938840;28;20031;-80
2022/01/02 07:34:12;;;;;;;18.95;3.25;;;;;;;;;;4936230;28;20035;-80
2022/01/02 07:36:43;;;;;;;15.68;3.13;;;;;;;;;;4921873;29;20119;-79
2022/01/02 07:39:09;;;;;;;15.70;3.05;;;;;;;;;;4918910;28;20118;-80
2022/01/02 07:41:35;;;;;;;8.85;2.30;;;;;;;;;;4934790;28;20059;-79
2022/01/02 07:44:03;;;;;;;15.90;3.08;;;;;;;;;;4919581;29;20039;-79
2022/01/02 07:46:29;;;;;;;10.18;2.22;;;;;;;;;;4915535;29;20063;-80
2022/01/02 07:48:55;;;;;;;14.70;3.70;;;;;;;;;;4933166;28;20039;-79
2022/01/02 07:51:21;;;;;;;21.40;3.45;;;;;;;;;;4933113;28;20027;-79
2022/01/02 07:53:47;;;;;;;11.02;2.88;;;;;;;;;;4937703;28;20094;-80
2022/01/02 07:56:13;;;;;;;12.35;3.00;;;;;;;;;;4913958;29;20046;-80
2022/01/02 07:58:39;;;;;;;8.52;2.55;;;;;;;;;;4921768;28;20023;-79
2022/01/02 08:01:05;;;;;;;18.67;4.03;;;;;;;;;;4922073;29;20089;-80
2022/01/02 08:03:31;;;;;;;7.45;2.97;;;;;;;;;;4937806;28;20167;-79
2022/01/02 08:05:57;;;;;;;18.15;3.63;;;;;;;;;;4921497;28;20126;-79
2022/01/02 08:08:23;;;;;;;21.23;3.83;;;;;;;;;;4929007;28;20031;-79
2022/01/02 08:10:49;;;;;;;20.85;7.32;;;;;;;;;;4926696;29;20066;-79
2022/01/02 08:13:15;;;;;;;6.38;2.75;;;;;;;;;;4915136;29;20039;-79
2022/01/02 08:15:43;;;;;;;10.20;2.42;;;;;;;;;;4944838;28;20468;-79
2022/01/02 08:18:13;;;;;;;15.18;3.28;;;;;;;;;;4939318;28;20050;-79
2022/01/02 08:20:39;;;;;;;18.02;3.83;;;;;;;;;;4965833;28;20113;-78
2022/01/02 08:23:05;;;;;;;14.80;4.28;;;;;;;;;;4939607;28;20565;-79
2022/01/02 08:25:31;;;;;;;9.68;3.70;;;;;;;;;;4934499;28;20031;-79
2022/01/02 08:27:57;;;;;;;9.80;3.03;;;;;;;;;;4946747;28;20027;-80
2022/01/02 08:30:23;;;;;;;22.08;4.75;;;;;;;;;;4940188;28;20034;-79
2022/01/02 08:32:49;;;;;;;18.70;3.00;;;;;;;;;;4961568;28;20045;-79
2022/01/02 08:35:15;;;;;;;12.40;3.50;;;;;;;;;;4959158;28;20490;-79
2022/01/02 08:37:41;;;;;;;17.52;4.35;;;;;;;;;;4946148;28;20029;-79
2022/01/02 08:40:08;;;;;;;9.68;2.80;;;;;;;;;;4957910;28;20105;-79
2022/01/02 08:42:34;;;;;;;14.77;4.43;;;;;;;;;;4945692;28;20027;-80
2022/01/02 08:45:01;;;;;;;17.23;4.97;;;;;;;;;;4958244;28;20037;-79
2022/01/02 08:47:27;;;;;;;7.60;3.65;;;;;;;;;;4942334;28;20395;-79
2022/01/02 08:49:53;;;;;;;11.68;3.10;;;;;;;;;;4958138;28;20143;-79
2022/01/02 08:52:20;;;;;;;8.82;2.55;;;;;;;;;;4945322;28;21073;-80
2022/01/02 08:54:46;;;;;;;19.15;4.18;;;;;;;;;;4948750;28;20492;-79
2022/01/02 08:57:12;;;;;;;16.02;4.05;;;;;;;;;;4954369;28;20039;-79
2022/01/02 08:59:38;;;;;;;20.35;4.82;;;;;;;;;;4958354;28;20074;-80
2022/01/02 09:02:04;;;;;;;12.63;3.80;;;;;;;;;;4933447;28;20039;-80
2022/01/02 09:04:30;;;;;;;11.68;5.00;;;;;;;;;;4943490;28;20427;-79
2022/01/02 09:06:56;;;;;;;19.65;4.93;;;;;;;;;;4953281;28;20094;-80
2022/01/02 09:09:24;;;;;;;13.32;3.58;;;;;;;;;;4937099;28;20479;-79
2022/01/02 09:11:50;;;;;;;5.65;2.25;;;;;;;;;;4936350;28;20134;-79
2022/01/02 09:14:16;;;;;;;12.02;4.72;;;;;;;;;;4957325;28;20121;-79
2022/01/02 09:16:44;;;;;;;13.57;3.92;;;;;;;;;;4951638;28;20130;-79
2022/01/02 09:19:10;;;;;;;10.93;3.15;;;;;;;;;;4940222;28;20098;-79
2022/01/02 09:21:36;;;;;;;9.23;4.60;;;;;;;;;;4944107;28;20042;-79
2022/01/02 09:24:03;;;;;;;15.85;3.78;;;;;;;;;;4953767;28;20038;-79
2022/01/02 09:26:29;;;;;;;9.98;4.75;;;;;;;;;;4941349;28;20042;-79
2022/01/02 09:28:55;;;;;;;13.45;6.38;;;;;;;;;;4937224;28;20073;-79
2022/01/02 09:31:21;;;;;;;15.93;5.65;;;;;;;;;;4944563;28;20067;-80
2022/01/02 09:33:47;;;;;;;15.80;6.00;;;;;;;;;;4959786;28;20041;-80
2022/01/02 09:36:13;;;;;;;11.00;4.28;;;;;;;;;;4944574;28;20365;-80
2022/01/02 09:38:39;;;;;;;21.92;6.18;;;;;;;;;;4952710;28;20043;-80
2022/01/02 09:41:06;;;;;;;13.77;4.85;;;;;;;;;;4957347;28;20042;-80
2022/01/02 09:43:32;;;;;;;6.50;2.80;;;;;;;;;;4935011;28;20511;-80
2022/01/02 09:45:59;;;;;;;12.35;4.55;;;;;;;;;;4947151;28;22518;-80
2022/01/02 09:48:27;;;;;;;5.57;2.60;;;;;;;;;;4952427;28;20467;-80
2022/01/02 09:50:53;;;;;;;12.48;5.03;;;;;;;;;;4950928;28;20554;-80
2022/01/02 09:53:19;;;;;;;7.70;3.85;;;;;;;;;;4938372;28;20525;-80
2022/01/02 09:55:45;;;;;;;16.58;5.43;;;;;;;;;;4948406;28;21933;-80
2022/01/02 09:58:12;;;;;;;15.18;5.07;;;;;;;;;;4940482;28;20105;-80
2022/01/02 10:00:44;;;;;;;16.52;6.47;;;;;;;;;;4936082;28;20058;-80
2022/01/02 10:03:10;;;;;;;7.47;3.67;;;;;;;;;;4957451;28;20098;-80
2022/01/02 10:05:55;;;;;;;22.75;6.78;;;;;;;;;;4955261;28;20499;-80
2022/01/02 10:08:28;;;;;;;20.73;6.57;;;;;;;;;;4947000;28;20027;-80
2022/01/02 10:11:22;;;;;;;16.92;6.22;;;;;;;;;;4952821;28;20868;-79
2022/01/02 10:13:50;;;;;;;25.30;6.82;;;;;;;;;;4938474;28;20031;-80
2022/01/02 10:16:20;;;;;;;12.40;5.05;;;;;;;;;;4940535;28;20042;-79
2022/01/02 10:18:53;;;;;;;21.75;6.55;;;;;;;;;;4951056;28;20039;-80
2022/01/02 10:21:33;;;;;;;20.08;6.63;;;;;;;;;;4943457;28;20031;-79
2022/01/02 10:24:09;;;;;;;17.17;6.00;;;;;;;;;;4943666;28;20170;-80
2022/01/02 10:26:35;;;;;;;12.23;5.57;;;;;;;;;;4941918;28;20046;-80
2022/01/02 10:29:09;;;;;;;22.67;6.82;;;;;;;;;;4934204;28;20054;-80
2022/01/02 10:31:35;;;;;;;11.45;5.50;;;;;;;;;;4957089;28;20515;-80
2022/01/02 10:34:01;;;;;;;17.48;4.90;;;;;;;;;;4936383;28;20081;-80
2022/01/02 10:36:35;;;;;;;8.77;3.45;;;;;;;;;;4942157;28;20082;-80
2022/01/02 10:39:03;;;;;;;4.72;3.33;;;;;;;;;;4931105;28;20105;-80
2022/01/02 10:41:33;;;;;;;11.07;4.47;;;;;;;;;;4937936;28;20385;-80
2022/01/02 10:44:16;;;;;;;11.02;4.13;;;;;;;;;;4934576;28;20518;-80
2022/01/02 10:47:02;;;;;;;9.95;5.07;;;;;;;;;;4950813;28;20037;-80
2022/01/02 10:49:46;;;;;;;23.45;6.05;;;;;;;;;;4942018;28;20629;-80
2022/01/02 10:52:21;;;;;;;10.60;5.05;;;;;;;;;;4947173;28;20478;-80
2022/01/02 10:54:48;;;;;;;17.77;4.90;;;;;;;;;;4954728;28;20045;-79
2022/01/02 10:57:14;;;;;;;16.30;4.03;;;;;;;;;;4939377;28;20506;-80
2022/01/02 10:59:42;;;;;;;24.35;5.97;;;;;;;;;;4936636;28;20603;-80
2022/01/02 11:02:09;;;;;;;20.05;5.03;;;;;;;;;;4944198;28;20361;-79
2022/01/02 11:04:35;;;;;;;15.55;5.18;;;;;;;;;;4940183;28;20512;-79
2022/01/02 11:07:03;;;;;;;4.45;2.92;;;;;;;;;;4940982;28;20461;-79
2022/01/02 11:09:29;;;;;;;18.58;4.88;;;;;;;;;;4937764;28;20038;-83
2022/01/02 11:11:55;;;;;;;17.50;3.92;;;;;;;;;;4954790;28;20039;-84
2022/01/02 11:14:21;;;;;;;6.75;3.97;;;;;;;;;;4939119;28;20050;-83
2022/01/02 11:17:00;;;;;;;9.10;4.53;;;;;;;;;;4961139;28;20126;-82
2022/01/02 11:19:26;;;;;;;13.05;5.05;;;;;;;;;;4940188;28;21564;-83
2022/01/02 11:21:53;;;;;;;17.90;4.82;;;;;;;;;;4937699;28;20038;-83
2022/01/02 11:24:25;;;;;;;19.15;3.70;;;;;;;;;;4940522;28;20495;-82
2022/01/02 11:26:56;;;;;;;17.90;5.30;;;;;;;;;;4948873;28;20451;-83
2022/01/02 11:29:26;;;;;;;15.75;4.35;;;;;;;;;;4944791;28;20041;-84
2022/01/02 11:31:52;;;;;;;16.33;5.68;;;;;;;;;;4953251;28;20035;-84
2022/01/02 11:34:28;;;;;;;13.32;5.05;;;;;;;;;;4962207;28;20066;-82
2022/01/02 11:37:13;;;;;;;9.57;4.07;;;;;;;;;;4935486;28;20031;-84
2022/01/02 11:39:55;;;;;;;9.90;3.85;;;;;;;;;;4933440;28;20486;-82
2022/01/02 11:42:42;;;;;;;4.35;3.00;;;;;;;;;;4955673;28;20384;-84
2022/01/02 11:45:10;;;;;;;6.25;2.80;;;;;;;;;;4945260;28;20651;-83
2022/01/02 11:47:39;;;;;;;10.48;3.03;;;;;;;;;;4935622;28;20522;-83
2022/01/02 11:50:06;;;;;;;4.50;2.08;;;;;;;;;;4935098;28;20042;-83
2022/01/02 11:52:34;;;;;;;11.52;4.18;;;;;;;;;;4936828;28;20042;-83
2022/01/02 11:55:00;;;;;;;5.60;2.85;;;;;;;;;;4954718;28;20015;-83
2022/01/02 11:57:29;;;;;;;11.75;3.22;;;;;;;;;;4939798;28;20031;-83
2022/01/02 11:59:56;;;;;;;8.85;3.53;;;;;;;;;;4950981;28;20393;-82
2022/01/02 12:02:23;;;;;;;13.85;3.75;;;;;;;;;;4956820;28;20015;-83
2022/01/02 12:04:58;;;;;;;15.20;3.13;;;;;;;;;;4944044;28;20040;-83
2022/01/02 12:07:34;;;;;;;30.60;3.88;;;;;;;;;;4941469;28;20448;-82
2022/01/02 12:10:21;;;;;;;12.02;3.53;;;;;;;;;;4960544;28;20058;-83
2022/01/02 12:12:59;;;;;;;8.48;2.72;;;;;;;;;;4952650;28;20045;-82
2022/01/02 12:15:31;;;;;;;14.98;3.58;;;;;;;;;;4933770;28;20070;-83
2022/01/02 12:18:10;;;;;;;6.38;2.22;;;;;;;;;;4929114;28;20870;-83
2022/01/02 12:20:51;;;;;;;13.45;3.90;;;;;;;;;;4928691;28;20138;-83
2022/01/02 12:23:36;;;;;;;9.70;2.60;;;;;;;;;;4937762;28;20547;-83
2022/01/02 12:26:11;;;;;;;17.55;3.00;;;;;;;;;;4919265;29;20039;-82
2022/01/02 12:28:39;;;;;;;10.35;2.90;;;;;;;;;;4919784;29;20126;-84
2022/01/02 12:31:06;;;;;;;16.85;2.75;;;;;;;;;;4933121;28;20539;-82
2022/01/02 12:33:32;;;;;;;19.98;4.00;;;;;;;;;;4914555;29;20035;-83
2022/01/02 12:36:08;;;;;;;15.52;3.95;;;;;;;;;;4918675;28;20039;-83
2022/01/02 12:38:54;;;;;;;16.25;2.40;;;;;;;;;;4915235;28;20020;-83
2022/01/02 12:41:23;;;;;;;11.88;3.58;;;;;;;;;;4930905;28;20032;-83
2022/01/02 12:44:01;;;;;;;14.57;2.85;;;;;;;;;;4918370;28;20035;-83
2022/01/02 12:46:46;;;;;;;6.78;1.45;;;;;;;;;;4922876;29;20035;-85
2022/01/02 12:49:16;;;;;;;13.00;2.60;;;;;;;;;;4933734;28;20031;-84
2022/01/02 12:51:53;;;;;;;4.13;2.20;;;;;;;;;;4918826;29;20051;-84
2022/01/02 12:54:20;;;;;;;6.05;2.58;;;;;;;;;;4921052;29;20043;-83
2022/01/02 12:56:47;;;;;;;9.73;2.22;;;;;;;;;;4920040;29;20412;-83
2022/01/02 12:59:22;;;;;;;5.22;1.33;;;;;;;;;;4920736;29;20126;-82
2022/01/02 13:01:49;;;;;;;16.40;3.00;;;;;;;;;;4924261;29;20523;-82
2022/01/02 13:04:17;;;;;;;14.00;1.70;;;;;;;;;;4934646;28;20519;-84
2022/01/02 13:06:47;;;;;;;7.90;2.60;;;;;;;;;;4920737;29;20621;-83
2022/01/02 13:09:21;;;;;;;15.02;2.40;;;;;;;;;;4918591;29;20043;-83
2022/01/02 13:11:47;;;;;;;14.18;2.38;;;;;;;;;;4920094;29;20027;-84
2022/01/02 13:14:13;;;;;;;11.40;3.42;;;;;;;;;;4917912;28;20039;-83
2022/01/02 13:16:39;;;;;;;8.40;1.83;;;;;;;;;;4922428;28;20043;-85
2022/01/02 13:19:06;;;;;;;20.77;4.68;;;;;;;;;;4924761;28;20031;-83
2022/01/02 13:21:32;;;;;;;10.95;2.58;;;;;;;;;;4924520;28;20313;-84
2022/01/02 13:24:31;;;;;;;7.85;2.45;;;;;;;;;;4916215;29;20081;-82
2022/01/02 13:26:57;;;;;;;18.90;2.22;;;;;;;;;;4886098;28;20050;-82
2022/01/02 13:29:24;;;;;;;8.43;1.83;;;;;;;;;;4924065;28;20649;-83
2022/01/02 13:31:51;;;;;;;13.02;3.30;;;;;;;;;;4916091;28;20028;-84
2022/01/02 13:34:23;;;;;;;18.00;2.95;;;;;;;;;;4922918;29;20329;-83
2022/01/02 13:36:59;;;;;;;5.07;2.22;;;;;;;;;;4924872;28;20091;-83
2022/01/02 13:39:41;;;;;;;6.38;1.35;;;;;;;;;;4916249;28;20088;-83
2022/01/02 13:42:07;;;;;;;9.48;2.03;;;;;;;;;;4934399;28;20031;-83
2022/01/02 13:44:41;;;;;;;4.78;1.85;;;;;;;;;;4920834;28;20045;-84
2022/01/02 13:47:08;;;;;;;13.25;2.40;;;;;;;;;;4925238;28;20035;-84
2022/01/02 13:49:56;;;;;;;11.82;1.73;;;;;;;;;;4934789;28;20103;-83
2022/01/02 13:52:22;;;;;;;3.33;1.15;;;;;;;;;;4941760;28;20110;-83
2022/01/02 13:54:49;;;;;;;7.10;1.83;;;;;;;;;;4921323;28;20051;-83
2022/01/02 13:57:15;;;;;;;16.25;2.15;;;;;;;;;;4921315;29;20035;-83
2022/01/02 13:59:42;;;;;;;8.00;1.48;;;;;;;;;;4924644;29;20305;-83
2022/01/02 14:02:08;;;;;;;5.30;1.52;;;;;;;;;;4920394;28;20038;-83
2022/01/02 14:04:56;;;;;;;9.18;1.75;;;;;;;;;;4913412;29;20031;-81
2022/01/02 14:07:27;;;;;;;10.00;1.98;;;;;;;;;;4935289;28;20507;-83
2022/01/02 14:09:53;;;;;;;13.35;2.25;;;;;;;;;;4924194;28;20499;-84
2022/01/02 14:12:32;;;;;;;11.23;2.10;;;;;;;;;;4936715;28;20114;-84
2022/01/02 14:15:06;;;;;;;16.45;2.53;;;;;;;;;;4927168;28;20091;-83
2022/01/02 14:17:35;;;;;;;6.65;1.33;;;;;;;;;;4926574;28;20103;-83
2022/01/02 14:20:03;;;;;;;9.48;2.35;;;;;;;;;;4919536;28;20042;-84
2022/01/02 14:22:33;;;;;;;15.65;2.50;;;;;;;;;;4933544;28;20027;-84
2022/01/02 14:24:59;;;;;;;4.68;0.52;;;;;;;;;;4926680;28;20054;-84
2022/01/02 14:27:28;;;;;;;3.42;1.38;;;;;;;;;;4926221;28;20031;-83
2022/01/02 14:29:54;;;;;;;9.07;2.25;;;;;;;;;;4920430;28;20099;-84
2022/01/02 14:32:21;;;;;;;15.48;1.65;;;;;;;;;;4921337;28;20627;-83
2022/01/02 14:34:48;;;;;;;8.82;2.20;;;;;;;;;;4940916;28;20110;-84
2022/01/02 14:37:15;;;;;;;6.20;2.33;;;;;;;;;;4919927;28;20138;-84
2022/01/02 14:39:42;;;;;;;7.32;2.28;;;;;;;;;;4918797;29;20118;-84
2022/01/02 14:42:08;;;;;;;4.53;1.08;;;;;;;;;;4914890;28;20399;-84
2022/01/02 14:44:35;;;;;;;6.68;1.45;;;;;;;;;;4924029;28;20867;-83
2022/01/02 14:47:03;;;;;;;14.57;1.98;;;;;;;;;;4920723;28;20143;-84